createdAt,value
2018-09-01T00:02:21.069Z,1016.09
2018-09-01T00:03:21.350Z,1016.13
2018-09-01T00:04:21.035Z,1016.14
2018-09-01T00:05:20.952Z,1016.11
2018-09-01T00:06:21.001Z,1016.12
2018-09-01T00:07:20.939Z,1016.13
2018-09-01T00:08:20.901Z,1016.12
2018-09-01T00:09:20.883Z,1016.15
2018-09-01T00:10:21.168Z,1016.15
2018-09-01T00:12:20.944Z,1016.14
2018-09-01T00:14:20.803Z,1016.16
2018-09-01T00:15:20.782Z,1016.20
2018-09-01T00:16:21.069Z,1016.16
2018-09-01T00:17:20.752Z,1016.13
2018-09-01T00:18:20.783Z,1016.16
2018-09-01T00:19:20.718Z,1016.14
2018-09-01T00:20:20.700Z,1016.12
2018-09-01T00:21:20.692Z,1016.12
2018-09-01T00:22:21.071Z,1016.11
2018-09-01T00:23:20.660Z,1016.13
2018-09-01T00:24:20.736Z,1016.13
2018-09-01T00:25:20.622Z,1016.11
2018-09-01T00:26:20.603Z,1016.10
2018-09-01T00:27:20.587Z,1016.08
2018-09-01T00:28:20.875Z,1016.09
2018-09-01T00:29:20.561Z,1016.10
2018-09-01T00:30:20.538Z,1016.13
2018-09-01T00:31:20.522Z,1016.12
2018-09-01T00:32:20.503Z,1016.13
2018-09-01T00:33:20.486Z,1016.15
2018-09-01T00:34:20.538Z,1016.14
2018-09-01T00:35:20.838Z,1016.17
2018-09-01T00:36:20.504Z,1016.15
2018-09-01T00:37:20.485Z,1016.12
2018-09-01T00:38:20.469Z,1016.15
2018-09-01T00:39:20.453Z,1016.15
2018-09-01T00:40:20.436Z,1016.15
2018-09-01T00:41:20.424Z,1016.20
2018-09-01T00:42:20.803Z,1016.14
2018-09-01T00:43:20.313Z,1016.16
2018-09-01T00:44:20.308Z,1016.15
2018-09-01T00:45:20.284Z,1016.20
2018-09-01T00:46:20.267Z,1016.18
2018-09-01T00:47:20.254Z,1016.18
2018-09-01T00:48:20.290Z,1016.19
2018-09-01T00:49:20.623Z,1016.19
2018-09-01T00:50:20.202Z,1016.19
2018-09-01T00:51:20.184Z,1016.18
2018-09-01T00:52:20.164Z,1016.20
2018-09-01T00:53:20.149Z,1016.20
2018-09-01T00:54:20.243Z,1016.20
2018-09-01T00:55:20.120Z,1016.19
2018-09-01T00:56:20.504Z,1016.19
2018-09-01T00:57:20.085Z,1016.22
2018-09-01T00:58:20.123Z,1016.24
2018-09-01T00:59:20.047Z,1016.27
2018-09-01T01:00:20.033Z,1016.28
2018-09-01T01:01:20.118Z,1016.28
2018-09-01T01:02:20.000Z,1016.29
2018-09-01T01:03:20.293Z,1016.28
2018-09-01T01:04:20.113Z,1016.30
2018-09-01T01:06:19.944Z,1016.30
2018-09-01T01:07:19.925Z,1016.31
2018-09-01T01:08:19.902Z,1016.35
2018-09-01T01:09:19.893Z,1016.33
2018-09-01T01:10:20.423Z,1016.34
2018-09-01T01:11:19.852Z,1016.36
2018-09-01T01:12:19.837Z,1016.33
2018-09-01T01:13:19.869Z,1016.37
2018-09-01T01:14:19.804Z,1016.36
2018-09-01T01:15:19.781Z,1016.39
2018-09-01T01:16:20.117Z,1016.35
2018-09-01T01:17:19.750Z,1016.38
2018-09-01T01:18:19.733Z,1016.40
2018-09-01T01:19:19.716Z,1016.39
2018-09-01T01:20:19.698Z,1016.39
2018-09-01T01:21:19.682Z,1016.39
2018-09-01T01:22:20.024Z,1016.38
2018-09-01T01:23:19.643Z,1016.39
2018-09-01T01:24:19.634Z,1016.35
2018-09-01T01:26:19.665Z,1016.38
2018-09-01T01:27:19.582Z,1016.34
2018-09-01T01:28:19.915Z,1016.36
2018-09-01T01:29:19.629Z,1016.37
2018-09-01T01:31:19.621Z,1016.34
2018-09-01T01:32:19.499Z,1016.36
2018-09-01T01:33:19.489Z,1016.36
2018-09-01T01:34:19.812Z,1016.36
2018-09-01T01:35:19.519Z,1016.35
2018-09-01T01:36:19.507Z,1016.39
2018-09-01T01:37:19.493Z,1016.46
2018-09-01T01:38:19.461Z,1016.43
2018-09-01T01:39:19.379Z,1016.42
2018-09-01T01:40:19.675Z,1016.45
2018-09-01T01:41:19.351Z,1016.46
2018-09-01T01:42:19.328Z,1016.44
2018-09-01T01:43:19.313Z,1016.47
2018-09-01T01:45:19.280Z,1016.43
2018-09-01T01:46:19.360Z,1016.43
2018-09-01T01:47:19.546Z,1016.43
2018-09-01T01:48:19.230Z,1016.43
2018-09-01T01:49:19.314Z,1016.42
2018-09-01T01:50:19.194Z,1016.44
2018-09-01T01:51:19.176Z,1016.47
2018-09-01T01:52:19.211Z,1016.46
2018-09-01T01:53:19.143Z,1016.44
2018-09-01T01:54:19.426Z,1016.47
2018-09-01T01:55:19.110Z,1016.47
2018-09-01T01:56:19.090Z,1016.49
2018-09-01T01:57:19.073Z,1016.46
2018-09-01T01:58:19.056Z,1016.50
2018-09-01T01:59:19.039Z,1016.48
2018-09-01T02:00:19.109Z,1016.50
2018-09-01T02:01:19.388Z,1016.49
2018-09-01T02:02:19.070Z,1016.47
2018-09-01T02:03:19.035Z,1016.48
2018-09-01T02:04:19.136Z,1016.50
2018-09-01T02:05:18.937Z,1016.50
2018-09-01T02:06:18.919Z,1016.48
2018-09-01T02:07:18.902Z,1016.50
2018-09-01T02:10:19.200Z,1016.46
2018-09-01T02:11:18.834Z,1016.46
2018-09-01T02:12:18.817Z,1016.46
2018-09-01T02:13:18.798Z,1016.47
2018-09-01T02:14:18.779Z,1016.47
2018-09-01T02:15:18.771Z,1016.48
2018-09-01T02:16:18.746Z,1016.51
2018-09-01T02:17:19.078Z,1016.48
2018-09-01T02:18:18.711Z,1016.47
2018-09-01T02:19:18.691Z,1016.50
2018-09-01T02:20:18.741Z,1016.52
2018-09-01T02:21:18.659Z,1016.53
2018-09-01T02:22:18.641Z,1016.55
2018-09-01T02:23:18.972Z,1016.56
2018-09-01T02:24:18.610Z,1016.59
2018-09-01T02:25:18.642Z,1016.57
2018-09-01T02:26:18.575Z,1016.59
2018-09-01T02:27:18.557Z,1016.57
2018-09-01T02:28:18.540Z,1016.63
2018-09-01T02:30:18.926Z,1016.63
2018-09-01T02:31:18.842Z,1016.63
2018-09-01T02:32:18.574Z,1016.64
2018-09-01T02:33:18.564Z,1016.63
2018-09-01T02:34:18.531Z,1016.65
2018-09-01T02:35:18.418Z,1016.67
2018-09-01T02:36:18.702Z,1016.69
2018-09-01T02:37:18.442Z,1016.66
2018-09-01T02:40:18.333Z,1016.73
2018-09-01T02:41:18.311Z,1016.71
2018-09-01T02:42:18.599Z,1016.68
2018-09-01T02:43:18.437Z,1016.73
2018-09-01T02:44:18.280Z,1016.67
2018-09-01T02:45:18.244Z,1016.61
2018-09-01T02:46:18.226Z,1016.59
2018-09-01T02:47:18.206Z,1016.57
2018-09-01T02:48:18.590Z,1016.56
2018-09-01T02:49:18.471Z,1016.59
2018-09-01T02:50:18.271Z,1016.58
2018-09-01T02:51:18.144Z,1016.58
2018-09-01T02:52:18.119Z,1016.59
2018-09-01T02:53:18.108Z,1016.57
2018-09-01T02:54:18.096Z,1016.62
2018-09-01T02:55:18.374Z,1016.64
2018-09-01T02:56:18.101Z,1016.64
2018-09-01T02:57:18.034Z,1016.63
2018-09-01T02:58:18.015Z,1016.66
2018-09-01T02:59:17.998Z,1016.63
2018-09-01T03:00:17.980Z,1016.63
2018-09-01T03:01:18.028Z,1016.64
2018-09-01T03:02:18.311Z,1016.66
2018-09-01T03:03:17.995Z,1016.65
2018-09-01T03:04:17.993Z,1016.65
2018-09-01T03:05:17.957Z,1016.67
2018-09-01T03:06:18.072Z,1016.68
2018-09-01T03:07:17.859Z,1016.57
2018-09-01T03:08:17.840Z,1016.64
2018-09-01T03:09:18.128Z,1016.63
2018-09-01T03:10:17.812Z,1016.59
2018-09-01T03:11:17.782Z,1016.61
2018-09-01T03:12:17.845Z,1016.60
2018-09-01T03:13:17.822Z,1016.58
2018-09-01T03:14:17.796Z,1016.57
2018-09-01T03:15:17.780Z,1016.60
2018-09-01T03:16:18.012Z,1016.57
2018-09-01T03:17:17.747Z,1016.59
2018-09-01T03:18:17.703Z,1016.58
2018-09-01T03:20:17.628Z,1016.59
2018-09-01T03:21:17.908Z,1016.64
2018-09-01T03:22:17.612Z,1016.61
2018-09-01T03:23:17.873Z,1016.62
2018-09-01T03:24:17.854Z,1016.63
2018-09-01T03:26:17.525Z,1016.63
2018-09-01T03:27:18.722Z,1016.63
2018-09-01T03:29:17.488Z,1016.63
2018-09-01T03:30:17.802Z,1016.61
2018-09-01T03:31:17.431Z,1016.62
2018-09-01T03:32:17.416Z,1016.63
2018-09-01T03:33:17.400Z,1016.62
2018-09-01T03:34:17.381Z,1016.62
2018-09-01T03:35:17.428Z,1016.61
2018-09-01T03:38:17.693Z,1016.55
2018-09-01T03:39:17.385Z,1016.59
2018-09-01T03:40:17.268Z,1016.59
2018-09-01T03:41:17.255Z,1016.61
2018-09-01T03:42:17.291Z,1016.62
2018-09-01T03:43:17.217Z,1016.62
2018-09-01T03:45:17.492Z,1016.64
2018-09-01T03:47:17.400Z,1016.63
2018-09-01T03:48:17.130Z,1016.59
2018-09-01T03:49:17.156Z,1016.64
2018-09-01T03:50:17.092Z,1016.61
2018-09-01T03:51:17.447Z,1016.66
2018-09-01T03:52:17.131Z,1016.63
2018-09-01T03:53:17.108Z,1016.58
2018-09-01T03:54:17.092Z,1016.59
2018-09-01T03:55:17.073Z,1016.61
2018-09-01T03:56:16.988Z,1016.58
2018-09-01T03:57:17.271Z,1016.62
2018-09-01T03:58:16.956Z,1016.58
2018-09-01T03:59:17.085Z,1016.58
2018-09-01T04:01:17.101Z,1016.60
2018-09-01T04:03:17.477Z,1016.62
2018-09-01T04:04:17.151Z,1016.62
2018-09-01T04:07:16.910Z,1016.63
2018-09-01T04:09:16.829Z,1016.63
2018-09-01T04:10:16.805Z,1016.67
2018-09-01T04:11:17.028Z,1016.66
2018-09-01T04:12:16.793Z,1016.62
2018-09-01T04:13:17.004Z,1016.66
2018-09-01T04:14:16.667Z,1016.63
2018-09-01T04:15:16.647Z,1016.64
2018-09-01T04:16:17.087Z,1016.66
2018-09-01T04:17:16.614Z,1016.72
2018-09-01T04:18:16.953Z,1016.72
2018-09-01T04:19:16.583Z,1016.67
2018-09-01T04:21:16.599Z,1016.71
2018-09-01T04:22:16.534Z,1016.72
2018-09-01T04:23:16.507Z,1016.72
2018-09-01T04:24:16.489Z,1016.75
2018-09-01T04:25:16.770Z,1016.73
2018-09-01T04:26:16.456Z,1016.73
2018-09-01T04:27:16.483Z,1016.76
2018-09-01T04:28:16.516Z,1016.73
2018-09-01T04:29:16.395Z,1016.74
2018-09-01T04:30:16.382Z,1016.75
2018-09-01T04:31:16.363Z,1016.75
2018-09-01T04:32:16.646Z,1016.78
2018-09-01T04:33:16.381Z,1016.77
2018-09-01T04:34:16.309Z,1016.78
2018-09-01T04:35:16.287Z,1016.78
2018-09-01T04:36:16.270Z,1016.76
2018-09-01T04:37:16.253Z,1016.79
2018-09-01T04:38:16.270Z,1016.81
2018-09-01T04:39:16.514Z,1016.78
2018-09-01T04:40:16.195Z,1016.81
2018-09-01T04:41:16.179Z,1016.79
2018-09-01T04:42:16.164Z,1016.79
2018-09-01T04:43:16.243Z,1016.79
2018-09-01T04:44:16.123Z,1016.80
2018-09-01T04:45:16.611Z,1016.83
2018-09-01T04:46:16.102Z,1016.88
2018-09-01T04:47:16.074Z,1016.87
2018-09-01T04:48:16.055Z,1016.92
2018-09-01T04:49:16.038Z,1016.85
2018-09-01T04:50:16.028Z,1016.86
2018-09-01T04:51:16.301Z,1016.85
2018-09-01T04:52:15.985Z,1016.88
2018-09-01T04:53:15.967Z,1016.87
2018-09-01T04:54:15.997Z,1016.86
2018-09-01T04:55:15.931Z,1016.91
2018-09-01T04:57:15.897Z,1016.91
2018-09-01T04:58:16.225Z,1016.89
2018-09-01T04:59:15.858Z,1016.94
2018-09-01T05:00:15.962Z,1016.93
2018-09-01T05:01:15.856Z,1016.94
2018-09-01T05:02:15.803Z,1016.94
2018-09-01T05:03:15.784Z,1016.91
2018-09-01T05:05:16.054Z,1016.93
2018-09-01T05:06:15.731Z,1016.90
2018-09-01T05:07:15.714Z,1016.92
2018-09-01T05:08:15.709Z,1016.92
2018-09-01T05:09:15.688Z,1016.93
2018-09-01T05:10:15.658Z,1016.94
2018-09-01T05:11:16.003Z,1016.93
2018-09-01T05:12:15.622Z,1016.95
2018-09-01T05:13:15.606Z,1016.92
2018-09-01T05:14:15.685Z,1016.96
2018-09-01T05:15:15.669Z,1016.93
2018-09-01T05:16:15.556Z,1016.98
2018-09-01T05:17:15.532Z,1017.01
2018-09-01T05:18:15.862Z,1017.03
2018-09-01T05:19:15.498Z,1017.03
2018-09-01T05:20:15.480Z,1017.07
2018-09-01T05:21:15.461Z,1017.08
2018-09-01T05:22:15.444Z,1017.10
2018-09-01T05:23:15.424Z,1017.07
2018-09-01T05:24:15.407Z,1017.12
2018-09-01T05:25:15.687Z,1017.15
2018-09-01T05:26:15.670Z,1017.14
2018-09-01T05:27:15.348Z,1017.16
2018-09-01T05:28:15.331Z,1017.18
2018-09-01T05:29:15.516Z,1017.19
2018-09-01T05:30:15.295Z,1017.23
2018-09-01T05:31:15.276Z,1017.24
2018-09-01T05:32:15.265Z,1017.25
2018-09-01T05:33:15.245Z,1017.23
2018-09-01T05:34:15.233Z,1017.25
2018-09-01T05:35:15.203Z,1017.23
2018-09-01T05:36:15.188Z,1017.24
2018-09-01T05:37:15.169Z,1017.26
2018-09-01T05:38:15.455Z,1017.22
2018-09-01T05:39:15.137Z,1017.22
2018-09-01T05:40:15.114Z,1017.18
2018-09-01T05:41:15.098Z,1017.23
2018-09-01T05:42:15.078Z,1017.23
2018-09-01T05:43:15.207Z,1017.20
2018-09-01T05:45:15.117Z,1017.26
2018-09-01T05:46:15.397Z,1017.26
2018-09-01T05:48:14.983Z,1017.25
2018-09-01T05:49:15.511Z,1017.26
2018-09-01T05:50:14.940Z,1017.30
2018-09-01T05:51:14.923Z,1017.27
2018-09-01T05:52:14.901Z,1017.27
2018-09-01T05:53:15.286Z,1017.26
2018-09-01T05:54:14.956Z,1017.27
2018-09-01T05:55:14.849Z,1017.28
2018-09-01T05:56:14.833Z,1017.28
2018-09-01T05:57:14.813Z,1017.32
2018-09-01T05:58:14.794Z,1017.30
2018-09-01T05:59:15.276Z,1017.31
2018-09-01T06:00:15.059Z,1017.32
2018-09-01T06:01:14.743Z,1017.32
2018-09-01T06:02:14.725Z,1017.39
2018-09-01T06:03:14.707Z,1017.35
2018-09-01T06:04:14.691Z,1017.35
2018-09-01T06:05:14.971Z,1017.38
2018-09-01T06:07:14.703Z,1017.45
2018-09-01T06:08:14.613Z,1017.45
2018-09-01T06:09:14.597Z,1017.49
2018-09-01T06:10:14.581Z,1017.50
2018-09-01T06:11:14.865Z,1017.50
2018-09-01T06:12:14.550Z,1017.52
2018-09-01T06:13:14.588Z,1017.53
2018-09-01T06:14:14.515Z,1017.55
2018-09-01T06:15:14.539Z,1017.51
2018-09-01T06:16:14.474Z,1017.53
2018-09-01T06:17:14.458Z,1017.55
2018-09-01T06:18:14.440Z,1017.53
2018-09-01T06:19:14.602Z,1017.53
2018-09-01T06:20:14.420Z,1017.54
2018-09-01T06:21:14.438Z,1017.60
2018-09-01T06:22:14.367Z,1017.56
2018-09-01T06:23:14.652Z,1017.61
2018-09-01T06:24:14.538Z,1017.62
2018-09-01T06:25:14.416Z,1017.60
2018-09-01T06:26:14.395Z,1017.64
2018-09-01T06:27:14.332Z,1017.66
2018-09-01T06:28:14.268Z,1017.69
2018-09-01T06:29:14.555Z,1017.68
2018-09-01T06:30:14.247Z,1017.68
2018-09-01T06:31:14.414Z,1017.73
2018-09-01T06:32:14.415Z,1017.72
2018-09-01T06:33:14.233Z,1017.77
2018-09-01T06:34:14.177Z,1017.78
2018-09-01T06:35:14.148Z,1017.74
2018-09-01T06:36:14.438Z,1017.79
2018-09-01T06:37:14.113Z,1017.78
2018-09-01T06:38:14.097Z,1017.79
2018-09-01T06:39:14.129Z,1017.78
2018-09-01T06:40:14.183Z,1017.82
2018-09-01T06:41:14.048Z,1017.81
2018-09-01T06:42:14.032Z,1017.84
2018-09-01T06:43:15.414Z,1017.81
2018-09-01T06:47:14.116Z,1017.87
2018-09-01T06:48:13.928Z,1017.92
2018-09-01T06:49:14.011Z,1017.89
2018-09-01T06:50:14.245Z,1017.87
2018-09-01T06:51:13.879Z,1017.86
2018-09-01T06:52:13.873Z,1017.88
2018-09-01T06:53:13.853Z,1017.86
2018-09-01T06:54:33.042Z,1017.87
2018-09-01T06:55:14.012Z,1017.88
2018-09-01T06:56:13.800Z,1017.87
2018-09-01T06:57:14.078Z,1017.94
2018-09-01T06:58:14.056Z,1017.94
2018-09-01T06:59:13.834Z,1017.95
2018-09-01T07:00:13.803Z,1017.95
2018-09-01T07:01:14.317Z,1017.98
2018-09-01T07:02:13.899Z,1017.99
2018-09-01T07:03:13.830Z,1018.00
2018-09-01T07:05:13.992Z,1017.98
2018-09-01T07:06:13.629Z,1018.01
2018-09-01T07:07:13.612Z,1017.98
2018-09-01T07:08:13.598Z,1017.97
2018-09-01T07:09:13.588Z,1018.00
2018-09-01T07:13:13.930Z,1018.01
2018-09-01T07:15:13.799Z,1017.98
2018-09-01T07:16:13.568Z,1017.98
2018-09-01T07:17:13.462Z,1017.97
2018-09-01T07:18:13.561Z,1017.99
2018-09-01T07:19:13.971Z,1018.02
2018-09-01T07:21:15.402Z,1018.03
2018-09-01T07:22:13.492Z,1018.04
2018-09-01T07:23:13.479Z,1018.07
2018-09-01T07:24:13.464Z,1018.08
2018-09-01T07:25:13.648Z,1018.14
2018-09-01T07:26:14.856Z,1018.12
2018-09-01T07:27:13.415Z,1018.14
2018-09-01T07:28:13.279Z,1018.13
2018-09-01T07:29:14.677Z,1018.18
2018-09-01T07:30:13.657Z,1018.18
2018-09-01T07:31:13.886Z,1018.19
2018-09-01T07:32:13.319Z,1018.21
2018-09-01T07:33:13.322Z,1018.22
2018-09-01T07:34:13.306Z,1018.25
2018-09-01T07:35:13.492Z,1018.21
2018-09-01T07:36:13.277Z,1018.25
2018-09-01T07:37:13.144Z,1018.25
2018-09-01T07:38:13.615Z,1018.20
2018-09-01T07:39:13.297Z,1018.24
2018-09-01T07:40:13.239Z,1018.26
2018-09-01T07:41:13.153Z,1018.25
2018-09-01T07:42:13.075Z,1018.27
2018-09-01T07:43:13.058Z,1018.25
2018-09-01T07:44:13.100Z,1018.25
2018-09-01T07:45:13.568Z,1018.28
2018-09-01T07:46:13.142Z,1018.30
2018-09-01T07:47:13.131Z,1018.29
2018-09-01T07:48:13.116Z,1018.31
2018-09-01T07:49:13.149Z,1018.31
2018-09-01T07:50:13.012Z,1018.34
2018-09-01T07:51:12.998Z,1018.31
2018-09-01T07:52:13.286Z,1018.36
2018-09-01T07:53:12.970Z,1018.38
2018-09-01T07:54:12.956Z,1018.41
2018-09-01T07:55:13.167Z,1018.48
2018-09-01T07:56:16.016Z,1018.45
2018-09-01T07:57:13.116Z,1018.41
2018-09-01T07:58:12.900Z,1018.45
2018-09-01T07:59:13.188Z,1018.47
2018-09-01T08:01:13.473Z,1018.48
2018-09-01T08:02:12.778Z,1018.47
2018-09-01T08:03:12.816Z,1018.49
2018-09-01T08:04:12.755Z,1018.52
2018-09-01T08:05:15.836Z,1018.56
2018-09-01T08:06:13.050Z,1018.52
2018-09-01T08:07:12.712Z,1018.48
2018-09-01T08:08:12.698Z,1018.53
2018-09-01T08:09:12.688Z,1018.55
2018-09-01T08:10:13.276Z,1018.56
2018-09-01T08:11:12.657Z,1018.59
2018-09-01T08:12:12.648Z,1018.62
2018-09-01T08:13:12.999Z,1018.69
2018-09-01T08:14:12.803Z,1018.66
2018-09-01T08:16:12.594Z,1018.69
2018-09-01T08:17:12.583Z,1018.71
2018-09-01T08:18:12.571Z,1018.75
2018-09-01T08:19:12.668Z,1018.75
2018-09-01T08:20:12.851Z,1018.73
2018-09-01T08:21:12.532Z,1018.75
2018-09-01T08:22:12.632Z,1018.74
2018-09-01T08:23:12.620Z,1018.75
2018-09-01T08:24:12.602Z,1018.71
2018-09-01T08:25:12.589Z,1018.73
2018-09-01T08:26:13.108Z,1018.75
2018-09-01T08:27:12.562Z,1018.78
2018-09-01T08:28:12.534Z,1018.79
2018-09-01T08:29:12.804Z,1018.76
2018-09-01T08:30:12.516Z,1018.77
2018-09-01T08:31:12.499Z,1018.81
2018-09-01T08:32:12.807Z,1018.75
2018-09-01T08:33:12.494Z,1018.85
2018-09-01T08:34:12.514Z,1018.87
2018-09-01T08:35:12.486Z,1018.90
2018-09-01T08:36:12.466Z,1018.95
2018-09-01T08:37:13.634Z,1018.97
2018-09-01T08:38:12.946Z,1018.98
2018-09-01T08:39:13.056Z,1019.00
2018-09-01T08:40:12.467Z,1018.98
2018-09-01T08:42:12.347Z,1019.11
2018-09-01T08:43:12.337Z,1019.08
2018-09-01T08:44:12.821Z,1019.08
2018-09-01T08:45:12.905Z,1019.13
2018-09-01T08:46:45.620Z,1019.17
2018-09-01T08:47:38.037Z,1019.19
2018-09-01T08:48:12.638Z,1019.21
2018-09-01T08:49:12.319Z,1019.21
2018-09-01T08:50:15.707Z,1019.23
2018-09-01T08:51:13.370Z,1019.18
2018-09-01T08:53:13.890Z,1019.12
2018-09-01T08:54:12.833Z,1019.15
2018-09-01T08:55:15.164Z,1019.13
2018-09-01T08:56:15.453Z,1019.14
2018-09-01T08:57:12.315Z,1019.12
2018-09-01T08:58:12.708Z,1019.11
2018-09-01T08:59:12.093Z,1019.13
2018-09-01T09:00:13.548Z,1019.12
2018-09-01T09:01:12.072Z,1019.12
2018-09-01T09:02:18.695Z,1019.08
2018-09-01T09:03:12.256Z,1019.07
2018-09-01T09:04:12.128Z,1019.10
2018-09-01T09:05:12.238Z,1019.09
2018-09-01T09:06:12.092Z,1019.14
2018-09-01T09:07:12.077Z,1019.13
2018-09-01T09:08:18.337Z,1019.20
2018-09-01T09:09:12.051Z,1019.19
2018-09-01T09:10:11.983Z,1019.17
2018-09-01T09:11:12.031Z,1019.14
2018-09-01T09:12:12.098Z,1019.16
2018-09-01T09:13:13.360Z,1019.09
2018-09-01T09:14:11.933Z,1019.17
2018-09-01T09:15:15.256Z,1019.10
2018-09-01T09:16:11.966Z,1019.13
2018-09-01T09:17:11.906Z,1019.09
2018-09-01T09:18:11.893Z,1019.13
2018-09-01T09:19:11.891Z,1019.10
2018-09-01T09:20:12.005Z,1019.09
2018-09-01T09:21:11.984Z,1019.11
2018-09-01T09:22:12.530Z,1019.11
2018-09-01T09:23:11.961Z,1019.11
2018-09-01T09:24:13.381Z,1019.15
2018-09-01T09:25:11.959Z,1019.18
2018-09-01T09:27:11.865Z,1019.45
2018-09-01T09:29:12.459Z,1019.48
2018-09-01T09:30:12.490Z,1019.34
2018-09-01T09:31:11.864Z,1019.30
2018-09-01T09:32:18.112Z,1019.27
2018-09-01T09:33:11.854Z,1019.34
2018-09-01T09:34:11.827Z,1019.35
2018-09-01T09:35:11.812Z,1019.53
2018-09-01T09:36:11.838Z,1019.53
2018-09-01T09:37:11.830Z,1019.34
2018-09-01T09:39:12.010Z,1019.39
2018-09-01T09:40:12.056Z,1019.32
2018-09-01T09:41:14.803Z,1019.42
2018-09-01T09:42:11.939Z,1019.46
2018-09-01T09:43:11.635Z,1019.60
2018-09-01T09:44:11.618Z,1019.52
2018-09-01T09:45:11.723Z,1019.54
2018-09-01T09:46:11.694Z,1019.62
2018-09-01T09:47:11.691Z,1019.40
2018-09-01T09:48:12.339Z,1019.63
2018-09-01T09:49:11.666Z,1019.48
2018-09-01T09:50:11.705Z,1019.62
2018-09-01T09:51:11.700Z,1019.41
2018-09-01T09:52:11.540Z,1019.61
2018-09-01T09:54:11.823Z,1019.49
2018-09-01T09:55:11.514Z,1019.37
2018-09-01T09:56:11.507Z,1019.34
2018-09-01T09:57:11.567Z,1019.30
2018-09-01T09:58:11.664Z,1019.44
2018-09-01T09:59:11.656Z,1019.38
2018-09-01T10:01:11.813Z,1019.28
2018-09-01T10:02:11.658Z,1019.27
2018-09-01T10:03:11.446Z,1019.29
2018-09-01T10:04:11.504Z,1019.30
2018-09-01T10:05:11.555Z,1019.42
2018-09-01T10:06:11.492Z,1019.35
2018-09-01T10:07:11.493Z,1019.41
2018-09-01T10:08:11.594Z,1019.95
2018-09-01T10:09:11.584Z,1020.00
2018-09-01T10:10:12.140Z,1020.01
2018-09-01T10:11:11.835Z,1019.38
2018-09-01T10:12:11.441Z,1020.02
2018-09-01T10:13:11.725Z,1019.56
2018-09-01T10:15:11.534Z,1019.27
2018-09-01T10:16:11.486Z,1019.44
2018-09-01T10:17:11.456Z,1019.18
2018-09-01T10:18:11.494Z,1019.20
2018-09-01T10:19:11.666Z,1019.17
2018-09-01T10:20:11.813Z,1019.16
2018-09-01T10:21:11.468Z,1019.13
2018-09-01T10:22:11.412Z,1019.16
2018-09-01T10:23:14.081Z,1019.13
2018-09-01T10:24:11.267Z,1019.84
2018-09-01T10:25:11.514Z,1019.84
2018-09-01T10:26:11.455Z,1019.87
2018-09-01T10:27:11.320Z,1019.86
2018-09-01T10:28:11.235Z,1019.81
2018-09-01T10:29:11.275Z,1019.82
2018-09-01T10:31:11.343Z,1019.76
2018-09-01T10:32:12.692Z,1019.71
2018-09-01T10:33:11.492Z,1019.72
2018-09-01T10:34:14.221Z,1019.72
2018-09-01T10:35:11.541Z,1019.72
2018-09-01T10:36:11.167Z,1019.67
2018-09-01T10:37:11.163Z,1019.63
2018-09-01T10:38:11.353Z,1019.61
2018-09-01T10:39:11.250Z,1019.55
2018-09-01T10:40:12.963Z,1019.59
2018-09-01T10:41:11.236Z,1019.58
2018-09-01T10:42:11.259Z,1019.62
2018-09-01T10:43:11.223Z,1019.57
2018-09-01T10:44:23.949Z,1019.61
2018-09-01T10:45:11.176Z,1019.61
2018-09-01T10:48:11.562Z,1019.52
2018-09-01T10:49:11.209Z,1019.55
2018-09-01T10:50:11.068Z,1019.49
2018-09-01T10:51:11.059Z,1019.49
2018-09-01T10:52:11.050Z,1019.42
2018-09-01T10:53:11.046Z,1019.42
2018-09-01T10:54:11.038Z,1019.42
2018-09-01T10:55:11.032Z,1019.36
2018-09-01T10:56:11.029Z,1019.37
2018-09-01T10:57:11.276Z,1019.36
2018-09-01T10:58:11.013Z,1019.34
2018-09-01T10:59:11.456Z,1019.32
2018-09-01T11:01:12.713Z,1019.28
2018-09-01T11:03:36.713Z,1019.33
2018-09-01T11:04:10.982Z,1019.30
2018-09-01T11:05:10.987Z,1019.28
2018-09-01T11:06:11.071Z,1019.32
2018-09-01T11:07:11.374Z,1019.33
2018-09-01T11:08:11.151Z,1019.07
2018-09-01T11:09:11.080Z,1019.39
2018-09-01T11:11:11.071Z,1019.36
2018-09-01T11:12:11.146Z,1019.44
2018-09-01T11:13:11.239Z,1019.39
2018-09-01T11:14:11.232Z,1019.40
2018-09-01T11:16:11.388Z,1019.47
2018-09-01T11:17:11.041Z,1019.51
2018-09-01T11:18:11.026Z,1019.47
2018-09-01T11:19:11.313Z,1019.54
2018-09-01T11:20:11.127Z,1019.34
2018-09-01T11:21:10.998Z,1019.24
2018-09-01T11:22:10.999Z,1019.20
2018-09-01T11:23:11.076Z,1019.19
2018-09-01T11:24:11.020Z,1019.18
2018-09-01T11:25:12.178Z,1019.19
2018-09-01T11:26:11.002Z,1019.53
2018-09-01T11:27:11.074Z,1019.51
2018-09-01T11:29:10.876Z,1019.35
2018-09-01T11:31:10.929Z,1019.55
2018-09-01T11:32:11.159Z,1019.55
2018-09-01T11:34:10.989Z,1019.44
2018-09-01T11:35:14.004Z,1019.44
2018-09-01T11:36:17.177Z,1019.44
2018-09-01T11:37:10.906Z,1019.42
2018-09-01T11:38:10.901Z,1019.43
2018-09-01T11:39:11.333Z,1019.44
2018-09-01T11:40:10.932Z,1019.43
2018-09-01T11:41:10.825Z,1019.33
2018-09-01T11:42:11.430Z,1019.36
2018-09-01T11:43:11.292Z,1019.32
2018-09-01T11:44:10.815Z,1019.30
2018-09-01T11:45:10.818Z,1019.32
2018-09-01T11:46:11.115Z,1019.30
2018-09-01T11:47:10.871Z,1019.31
2018-09-01T11:48:10.887Z,1019.28
2018-09-01T11:49:10.803Z,1019.28
2018-09-01T11:52:11.192Z,1019.31
2018-09-01T11:53:11.145Z,1019.35
2018-09-01T11:54:10.877Z,1019.37
2018-09-01T11:55:10.977Z,1019.36
2018-09-01T11:57:10.779Z,1019.35
2018-09-01T12:00:10.898Z,1019.31
2018-09-01T12:01:10.887Z,1019.30
2018-09-01T12:02:11.175Z,1019.29
2018-09-01T12:03:17.715Z,1019.31
2018-09-01T12:04:10.874Z,1019.37
2018-09-01T12:05:11.238Z,1019.37
2018-09-01T12:06:11.846Z,1019.42
2018-09-01T12:07:10.968Z,1019.42
2018-09-01T12:08:10.887Z,1019.47
2018-09-01T12:09:12.445Z,1019.46
2018-09-01T12:10:11.129Z,1019.49
2018-09-01T12:11:11.401Z,1019.49
2018-09-01T12:12:12.202Z,1019.44
2018-09-01T12:13:11.238Z,1019.20
2018-09-01T12:14:10.955Z,1019.04
2018-09-01T12:15:10.953Z,1019.45
2018-09-01T12:16:10.945Z,1019.43
2018-09-01T12:17:10.947Z,1019.47
2018-09-01T12:18:10.839Z,1019.46
2018-09-01T12:19:10.888Z,1019.03
2018-09-01T12:20:12.524Z,1019.35
2018-09-01T12:21:10.838Z,1019.40
2018-09-01T12:23:10.833Z,1019.32
2018-09-01T12:24:10.808Z,1019.30
2018-09-01T12:25:10.806Z,1019.17
2018-09-01T12:26:11.086Z,1018.99
2018-09-01T12:27:10.774Z,1018.99
2018-09-01T12:28:10.810Z,1018.97
2018-09-01T12:29:10.772Z,1018.96
2018-09-01T12:30:10.764Z,1018.94
2018-09-01T12:31:10.844Z,1018.95
2018-09-01T12:32:10.829Z,1018.95
2018-09-01T12:33:10.846Z,1018.95
2018-09-01T12:34:10.824Z,1019.00
2018-09-01T12:35:10.762Z,1019.00
2018-09-01T12:36:10.892Z,1018.99
2018-09-01T12:37:10.706Z,1019.04
2018-09-01T12:38:10.950Z,1019.28
2018-09-01T12:39:10.762Z,1019.26
2018-09-01T12:40:10.746Z,1019.30
2018-09-01T12:41:10.721Z,1019.26
2018-09-01T12:42:10.747Z,1019.31
2018-09-01T12:43:10.758Z,1019.31
2018-09-01T12:44:11.599Z,1019.36
2018-09-01T12:45:10.712Z,1019.39
2018-09-01T12:46:36.378Z,1019.43
2018-09-01T12:47:10.594Z,1019.45
2018-09-01T12:48:11.198Z,1019.43
2018-09-01T12:49:10.685Z,1019.42
2018-09-01T12:52:11.080Z,1019.08
2018-09-01T12:53:10.611Z,1019.42
2018-09-01T12:54:10.593Z,1019.37
2018-09-01T12:55:10.615Z,1019.39
2018-09-01T12:56:11.171Z,1019.35
2018-09-01T12:57:10.667Z,1019.33
2018-09-01T12:58:10.960Z,1019.34
2018-09-01T12:59:10.655Z,1019.08
2018-09-01T13:00:10.551Z,1018.94
2018-09-01T13:01:10.603Z,1019.10
2018-09-01T13:02:10.547Z,1019.21
2018-09-01T13:03:10.542Z,1019.21
2018-09-01T13:04:10.838Z,1019.22
2018-09-01T13:05:10.630Z,1019.15
2018-09-01T13:06:10.532Z,1019.14
2018-09-01T13:07:10.596Z,1019.15
2018-09-01T13:08:10.599Z,1019.17
2018-09-01T13:12:10.824Z,1018.87
2018-09-01T13:13:10.521Z,1019.16
2018-09-01T13:14:10.514Z,1019.25
2018-09-01T13:15:10.512Z,1019.11
2018-09-01T13:16:10.516Z,1019.16